createdAt,value
2018-01-20T00:02:15.773Z,37.10
2018-01-20T00:04:43.378Z,30.20
2018-01-20T00:07:10.933Z,34.87
2018-01-20T00:09:50.219Z,37.17
2018-01-20T00:12:17.808Z,41.10
2018-01-20T00:14:45.440Z,30.23
2018-01-20T00:17:16.016Z,31.10
2018-01-20T00:19:43.574Z,44.10
2018-01-20T00:22:27.976Z,42.50
2018-01-20T00:25:01.119Z,37.40
2018-01-20T00:27:29.126Z,38.07
2018-01-20T00:29:56.660Z,47.07
2018-01-20T00:32:24.254Z,49.23
2018-01-20T00:34:51.787Z,47.90
2018-01-20T00:37:19.333Z,53.33
2018-01-20T00:39:46.923Z,56.37
2018-01-20T00:42:15.460Z,51.43
2018-01-20T00:44:43.017Z,47.63
2018-01-20T00:47:10.580Z,50.80
2018-01-20T00:49:38.101Z,45.83
2018-01-20T00:52:05.657Z,57.07
2018-01-20T00:54:33.176Z,58.50
2018-01-20T00:57:00.724Z,63.20
2018-01-20T00:59:28.282Z,75.27
2018-01-20T01:01:56.027Z,54.90
2018-01-20T01:04:23.593Z,56.73
2018-01-20T01:06:51.153Z,48.13
2018-01-20T01:09:18.745Z,47.63
2018-01-20T01:11:46.277Z,36.33
2018-01-20T01:14:13.834Z,45.93
2018-01-20T01:16:41.572Z,44.27
2018-01-20T01:19:09.163Z,45.17
2018-01-20T01:21:36.681Z,44.50
2018-01-20T01:24:04.212Z,42.77
2018-01-20T01:26:31.793Z,46.43
2018-01-20T01:28:59.314Z,41.83
2018-01-20T01:31:26.861Z,32.47
2018-01-20T01:33:54.481Z,34.77
2018-01-20T01:36:22.045Z,44.90
2018-01-20T01:38:49.614Z,29.37
2018-01-20T01:41:17.205Z,35.70
2018-01-20T01:43:44.792Z,36.00
2018-01-20T01:46:12.412Z,33.53
2018-01-20T01:48:39.974Z,28.67
2018-01-20T01:51:07.545Z,27.80
2018-01-20T01:53:35.190Z,27.20
2018-01-20T01:56:02.745Z,38.40
2018-01-20T01:58:30.272Z,22.73
2018-01-20T02:00:57.827Z,27.07
2018-01-20T02:03:25.347Z,26.20
2018-01-20T02:05:52.942Z,28.87
2018-01-20T02:08:20.506Z,21.17
2018-01-20T02:10:48.095Z,23.30
2018-01-20T02:13:15.672Z,25.23
2018-01-20T02:15:43.268Z,28.73
2018-01-20T02:18:10.829Z,30.43
2018-01-20T02:20:38.426Z,25.93
2018-01-20T02:23:05.991Z,31.73
2018-01-20T02:25:33.646Z,32.77
2018-01-20T02:28:01.179Z,30.60
2018-01-20T02:30:29.033Z,31.63
2018-01-20T02:32:56.589Z,35.10
2018-01-20T02:35:24.119Z,31.97
2018-01-20T02:37:51.738Z,38.47
2018-01-20T02:40:19.290Z,35.97
2018-01-20T02:42:46.858Z,41.90
2018-01-20T02:45:14.445Z,39.63
2018-01-20T02:47:41.985Z,37.43
2018-01-20T02:50:09.503Z,41.23
2018-01-20T02:52:37.082Z,40.40
2018-01-20T02:55:04.843Z,39.67
2018-01-20T02:57:32.405Z,35.80
2018-01-20T03:00:00.023Z,36.73
2018-01-20T03:02:27.731Z,37.47
2018-01-20T03:04:55.296Z,47.60
2018-01-20T03:07:22.990Z,51.40
2018-01-20T03:09:50.542Z,44.00
2018-01-20T03:12:18.674Z,47.23
2018-01-20T03:14:46.204Z,50.23
2018-01-20T03:17:13.758Z,41.43
2018-01-20T03:19:41.395Z,51.43
2018-01-20T03:22:08.959Z,57.73
2018-01-20T03:24:36.520Z,44.40
2018-01-20T03:27:04.319Z,50.23
2018-01-20T03:29:31.910Z,55.03
2018-01-20T03:31:59.477Z,50.90
2018-01-20T03:34:27.078Z,50.97
2018-01-20T03:36:54.600Z,63.70
2018-01-20T03:39:22.497Z,60.93
2018-01-20T03:41:50.054Z,52.67
2018-01-20T03:44:17.841Z,58.17
2018-01-20T03:46:45.510Z,60.47
2018-01-20T03:49:13.032Z,72.90
2018-01-20T03:51:40.867Z,72.10
2018-01-20T03:54:08.392Z,66.13
2018-01-20T03:56:35.949Z,73.93
2018-01-20T03:59:03.594Z,74.13
2018-01-20T04:01:31.154Z,86.37
2018-01-20T04:03:58.943Z,84.43
2018-01-20T04:06:26.522Z,82.60
2018-01-20T04:08:54.098Z,85.03
2018-01-20T04:11:21.714Z,81.40
2018-01-20T04:13:49.266Z,84.87
2018-01-20T04:16:16.817Z,87.83
2018-01-20T04:18:44.375Z,79.20
2018-01-20T04:21:11.910Z,86.20
2018-01-20T04:23:39.493Z,85.83
2018-01-20T04:26:07.008Z,68.67
2018-01-20T04:28:34.564Z,76.50
2018-01-20T04:31:02.435Z,75.57
2018-01-20T04:33:30.001Z,81.23
2018-01-20T04:35:57.570Z,66.30
2018-01-20T04:38:25.151Z,79.63
2018-01-20T04:40:52.714Z,84.30
2018-01-20T04:43:20.311Z,69.37
2018-01-20T04:45:48.130Z,59.17
2018-01-20T04:48:15.690Z,68.83
2018-01-20T04:50:43.277Z,67.57
2018-01-20T04:53:10.905Z,67.37
2018-01-20T04:55:38.483Z,80.67
2018-01-20T04:58:06.039Z,75.97
2018-01-20T05:00:33.935Z,65.03
2018-01-20T05:03:01.504Z,78.27
2018-01-20T05:05:29.153Z,66.30
2018-01-20T05:07:56.769Z,75.93
2018-01-20T05:10:24.362Z,87.77
2018-01-20T05:12:51.932Z,76.13
2018-01-20T05:15:19.520Z,87.67
2018-01-20T05:17:47.044Z,81.77
2018-01-20T05:20:14.634Z,83.33
2018-01-20T05:22:42.148Z,88.23
2018-01-20T05:25:09.736Z,73.03
2018-01-20T05:27:37.264Z,84.83
2018-01-20T05:30:05.068Z,82.70
2018-01-20T05:32:32.636Z,89.00
2018-01-20T05:35:00.202Z,69.77
2018-01-20T05:37:27.794Z,75.03
2018-01-20T05:39:55.353Z,76.63
2018-01-20T05:42:22.937Z,84.03
2018-01-20T05:44:50.659Z,79.53
2018-01-20T05:47:18.656Z,90.60
2018-01-20T05:49:46.223Z,75.10
2018-01-20T05:52:13.757Z,76.70
2018-01-20T05:54:41.311Z,74.50
2018-01-20T05:57:08.914Z,73.03
2018-01-20T05:59:36.471Z,75.73
2018-01-20T06:02:04.026Z,72.63
2018-01-20T06:04:31.610Z,70.70
2018-01-20T06:06:59.123Z,81.43
2018-01-20T06:09:26.795Z,79.83
2018-01-20T06:11:56.985Z,69.57
2018-01-20T06:14:24.583Z,72.50
2018-01-20T06:16:52.146Z,70.33
2018-01-20T06:19:19.715Z,76.93
2018-01-20T06:21:47.283Z,68.60
2018-01-20T06:24:15.103Z,89.03
2018-01-20T06:26:42.694Z,73.67
2018-01-20T06:29:10.277Z,96.27
2018-01-20T06:31:37.898Z,79.13
2018-01-20T06:34:06.152Z,75.57
2018-01-20T06:36:34.106Z,76.23
2018-01-20T06:39:01.771Z,84.67
2018-01-20T06:41:29.333Z,67.07
2018-01-20T06:43:56.990Z,77.63
2018-01-20T06:46:24.950Z,75.90
2018-01-20T06:48:52.523Z,76.83
2018-01-20T06:51:20.043Z,76.10
2018-01-20T06:53:47.719Z,82.30
2018-01-20T06:56:15.253Z,83.87
2018-01-20T06:58:42.825Z,103.47
2018-01-20T07:01:10.390Z,78.03
2018-01-20T07:03:37.978Z,91.53
2018-01-20T07:06:05.538Z,93.27
2018-01-20T07:08:33.088Z,87.73
2018-01-20T07:11:00.633Z,92.10
2018-01-20T07:13:28.213Z,88.10
2018-01-20T07:15:55.877Z,81.37
2018-01-20T07:18:23.657Z,87.47
2018-01-20T07:20:51.382Z,84.00
2018-01-20T07:23:18.992Z,88.13
2018-01-20T07:25:46.511Z,83.33
2018-01-20T07:28:14.208Z,91.20
2018-01-20T07:30:41.765Z,73.57
2018-01-20T07:33:09.328Z,76.10
2018-01-20T07:35:36.894Z,67.53
2018-01-20T07:38:04.454Z,81.50
2018-01-20T07:40:31.999Z,77.00
2018-01-20T07:42:59.795Z,75.63
2018-01-20T07:45:27.384Z,103.90
2018-01-20T07:47:54.909Z,85.20
2018-01-20T07:50:22.466Z,83.87
2018-01-20T07:52:50.048Z,80.13
2018-01-20T07:55:18.092Z,82.43
2018-01-20T07:57:45.746Z,88.93
2018-01-20T08:00:13.325Z,75.67
2018-01-20T08:02:40.906Z,80.60
2018-01-20T08:05:08.565Z,67.27
2018-01-20T08:07:36.296Z,67.43
2018-01-20T08:10:04.016Z,89.03
2018-01-20T08:12:31.602Z,74.70
2018-01-20T08:14:59.119Z,79.23
2018-01-20T08:17:26.720Z,74.30
2018-01-20T08:19:54.679Z,62.33
2018-01-20T08:22:23.247Z,73.47
2018-01-20T08:24:50.818Z,69.00
2018-01-20T08:27:19.147Z,66.93
2018-01-20T08:29:46.670Z,65.83
2018-01-20T08:32:14.433Z,68.00
2018-01-20T08:34:42.005Z,63.33
2018-01-20T08:37:09.567Z,58.03
2018-01-20T08:39:37.154Z,62.90
2018-01-20T08:42:04.706Z,56.20
2018-01-20T08:44:32.314Z,55.90
2018-01-20T08:46:59.900Z,76.83
2018-01-20T08:49:27.974Z,86.63
2018-01-20T08:51:55.569Z,86.80
2018-01-20T08:54:23.196Z,84.23
2018-01-20T08:56:50.776Z,146.33
2018-01-20T08:59:18.305Z,69.73
2018-01-20T09:01:45.898Z,75.90
2018-01-20T09:04:13.662Z,73.50
2018-01-20T09:06:41.284Z,89.97
2018-01-20T09:09:08.912Z,88.27
2018-01-20T09:11:36.693Z,76.10
2018-01-20T09:14:04.217Z,64.97
2018-01-20T09:16:31.865Z,56.90
2018-01-20T09:18:59.890Z,62.50
2018-01-20T09:21:27.413Z,71.03
2018-01-20T09:23:55.237Z,86.17
2018-01-20T09:26:22.799Z,57.40
2018-01-20T09:28:50.349Z,67.17
2018-01-20T09:31:18.002Z,66.13
2018-01-20T09:33:45.598Z,61.50
2018-01-20T09:36:13.145Z,114.23
2018-01-20T09:38:40.980Z,55.43
2018-01-20T09:41:08.506Z,68.50
2018-01-20T09:43:36.075Z,55.17
2018-01-20T09:46:03.719Z,53.60
2018-01-20T09:48:31.330Z,56.03
2018-01-20T09:50:58.887Z,74.77
2018-01-20T09:53:26.698Z,69.07
2018-01-20T09:55:54.481Z,58.43
2018-01-20T09:58:22.061Z,67.07
2018-01-20T10:00:49.678Z,56.77
2018-01-20T10:03:17.603Z,54.40
2018-01-20T10:05:45.286Z,50.10
2018-01-20T10:08:13.078Z,58.33
2018-01-20T10:10:40.602Z,62.70
2018-01-20T10:13:08.397Z,68.63
2018-01-20T10:15:36.282Z,56.70
2018-01-20T10:18:03.853Z,67.37
2018-01-20T10:20:31.415Z,58.50
2018-01-20T10:22:58.987Z,75.63
2018-01-20T10:25:26.992Z,49.67
2018-01-20T10:27:55.487Z,51.33
2018-01-20T10:30:23.421Z,48.67
2018-01-20T10:32:51.017Z,53.03
2018-01-20T10:35:19.581Z,44.43
2018-01-20T10:37:47.267Z,39.53
2018-01-20T10:40:14.866Z,55.87
2018-01-20T10:42:42.492Z,45.27
2018-01-20T10:45:10.003Z,50.43
2018-01-20T10:47:37.581Z,52.63
2018-01-20T10:50:05.930Z,40.13
2018-01-20T10:52:33.574Z,51.83
2018-01-20T10:55:01.188Z,99.87
2018-01-20T10:57:28.690Z,66.17
2018-01-20T10:59:56.604Z,52.70
2018-01-20T11:02:24.502Z,41.30
2018-01-20T11:04:52.085Z,57.40
2018-01-20T11:07:19.590Z,48.93
2018-01-20T11:09:47.100Z,41.00
2018-01-20T11:12:15.310Z,55.03
2018-01-20T11:14:42.859Z,52.43
2018-01-20T11:17:10.874Z,53.30
2018-01-20T11:19:38.837Z,38.47
2018-01-20T11:22:06.398Z,65.90
2018-01-20T11:24:33.954Z,38.17
2018-01-20T11:27:02.036Z,45.20
2018-01-20T11:29:29.629Z,40.30
2018-01-20T11:31:57.247Z,43.90
2018-01-20T11:34:24.806Z,36.47
2018-01-20T11:36:52.449Z,43.50
2018-01-20T11:39:20.049Z,42.63
2018-01-20T11:41:47.621Z,37.00
2018-01-20T11:44:15.229Z,40.73
2018-01-20T11:46:42.755Z,39.10
2018-01-20T11:49:10.656Z,38.27
2018-01-20T11:51:38.257Z,41.60
2018-01-20T11:54:07.020Z,46.10
2018-01-20T11:56:34.637Z,39.40
2018-01-20T11:59:02.223Z,52.30
2018-01-20T12:01:30.086Z,34.60
2018-01-20T12:03:57.633Z,38.90
2018-01-20T12:06:25.283Z,40.70
2018-01-20T12:08:52.800Z,42.00
2018-01-20T12:11:20.903Z,36.53
2018-01-20T12:13:49.166Z,39.43
2018-01-20T12:16:16.758Z,41.60
2018-01-20T12:18:44.333Z,37.07
2018-01-20T12:21:11.950Z,39.97
2018-01-20T12:23:39.999Z,44.27
2018-01-20T12:26:08.095Z,42.07
2018-01-20T12:28:35.713Z,40.73
2018-01-20T12:31:03.248Z,39.20
2018-01-20T12:33:31.016Z,30.90
2018-01-20T12:35:58.603Z,37.87
2018-01-20T12:38:26.124Z,33.77
2018-01-20T12:40:54.059Z,37.57
2018-01-20T12:43:21.628Z,38.23
2018-01-20T12:45:49.209Z,40.43
2018-01-20T12:48:16.834Z,40.07
2018-01-20T12:50:44.418Z,42.27
2018-01-20T12:53:12.452Z,31.07
2018-01-20T12:55:40.154Z,45.37
2018-01-20T12:58:07.720Z,39.53
2018-01-20T13:00:35.601Z,34.90
2018-01-20T13:03:03.139Z,30.97
2018-01-20T13:05:30.816Z,33.73
2018-01-20T13:07:58.702Z,54.70
2018-01-20T13:10:26.392Z,39.27
2018-01-20T13:12:53.952Z,40.50
2018-01-20T13:15:21.550Z,104.07
2018-01-20T13:17:49.189Z,36.00
2018-01-20T13:20:16.772Z,46.93
2018-01-20T13:22:44.331Z,35.67
2018-01-20T13:25:12.226Z,53.07
2018-01-20T13:27:39.748Z,38.30
2018-01-20T13:30:07.409Z,41.27
2018-01-20T13:32:35.036Z,26.40
2018-01-20T13:35:02.617Z,25.23
2018-01-20T13:37:30.252Z,32.33
2018-01-20T13:39:57.983Z,34.37
2018-01-20T13:42:25.570Z,28.23
2018-01-20T13:44:53.148Z,28.03
2018-01-20T13:47:20.809Z,31.13
2018-01-20T13:49:48.394Z,34.70
2018-01-20T13:52:15.969Z,30.93
2018-01-20T13:54:43.572Z,27.40
2018-01-20T13:57:11.218Z,31.50
2018-01-20T13:59:38.862Z,29.03
2018-01-20T14:02:06.384Z,35.40
2018-01-20T14:04:34.249Z,34.60
2018-01-20T14:07:01.798Z,39.13
2018-01-20T14:09:29.321Z,29.97
2018-01-20T14:11:57.239Z,35.87
2018-01-20T14:14:24.770Z,26.43
2018-01-20T14:16:52.338Z,34.17
2018-01-20T14:19:20.260Z,27.27
2018-01-20T14:21:47.872Z,34.13
2018-01-20T14:24:15.400Z,44.03
2018-01-20T14:26:42.981Z,43.00
2018-01-20T14:29:10.496Z,48.40
2018-01-20T14:31:38.105Z,39.83
2018-01-20T14:34:05.653Z,26.53
2018-01-20T14:36:33.164Z,31.40
2018-01-20T14:39:00.881Z,37.87
2018-01-20T14:41:28.425Z,31.37
2018-01-20T14:43:56.075Z,27.97
2018-01-20T14:46:23.834Z,35.80
2018-01-20T14:48:51.428Z,30.80
2018-01-20T14:51:18.992Z,30.20
2018-01-20T14:53:47.072Z,41.23
2018-01-20T14:56:14.630Z,41.27
2018-01-20T14:58:42.217Z,29.57
2018-01-20T15:01:09.825Z,37.20
2018-01-20T15:03:37.518Z,35.37
2018-01-20T15:06:05.059Z,35.73
2018-01-20T15:08:32.584Z,42.53
2018-01-20T15:11:00.431Z,56.87
2018-01-20T15:13:28.036Z,37.00
2018-01-20T15:15:55.629Z,40.03
2018-01-20T15:18:23.217Z,36.20
2018-01-20T15:20:51.322Z,34.23
2018-01-20T15:23:18.897Z,35.07
2018-01-20T15:25:46.408Z,43.47
2018-01-20T15:28:13.916Z,62.27
2018-01-20T15:30:41.614Z,40.03
2018-01-20T15:33:09.221Z,51.70
2018-01-20T15:35:36.805Z,44.63
2018-01-20T15:38:04.515Z,69.00
2018-01-20T15:40:32.221Z,69.40
2018-01-20T15:42:59.764Z,63.13
2018-01-20T15:45:27.298Z,106.53
2018-01-20T15:47:54.816Z,59.73
2018-01-20T15:50:22.513Z,54.83
2018-01-20T15:52:50.229Z,49.73
2018-01-20T15:55:17.834Z,45.63
2018-01-20T15:57:45.413Z,46.30
2018-01-20T16:00:12.970Z,51.90
2018-01-20T16:02:40.638Z,55.83
2018-01-20T16:05:08.383Z,39.40
2018-01-20T16:07:35.978Z,56.70
2018-01-20T16:10:03.708Z,45.90
2018-01-20T16:12:31.323Z,40.40
2018-01-20T16:14:58.852Z,44.17
2018-01-20T16:17:26.469Z,42.53
2018-01-20T16:19:54.038Z,41.50
2018-01-20T16:22:21.671Z,37.43
2018-01-20T16:24:49.539Z,40.70
2018-01-20T16:27:17.130Z,50.33
2018-01-20T16:29:44.748Z,51.80
2018-01-20T16:32:12.393Z,38.60
2018-01-20T16:34:39.951Z,40.40
2018-01-20T16:37:07.468Z,57.13
2018-01-20T16:39:35.345Z,42.57
2018-01-20T16:42:02.880Z,48.50
2018-01-20T16:44:30.447Z,33.50
2018-01-20T16:46:58.234Z,44.80
2018-01-20T16:49:25.967Z,31.07
2018-01-20T16:51:53.584Z,39.37
2018-01-20T16:54:21.382Z,39.23
2018-01-20T16:56:48.953Z,35.80
2018-01-20T16:59:16.824Z,35.43
2018-01-20T17:01:44.359Z,36.23
2018-01-20T17:04:11.911Z,38.93
2018-01-20T17:06:39.442Z,52.33
2018-01-20T17:09:06.961Z,52.40
2018-01-20T17:11:34.542Z,52.67
2018-01-20T17:14:02.055Z,42.50
2018-01-20T17:16:29.837Z,52.20
2018-01-20T17:18:57.914Z,43.00
2018-01-20T17:21:25.453Z,52.60
2018-01-20T17:23:53.036Z,49.37
2018-01-20T17:26:20.574Z,54.17
2018-01-20T17:28:48.256Z,54.70
2018-01-20T17:31:15.832Z,45.03
2018-01-20T17:33:43.740Z,48.27
2018-01-20T17:36:11.638Z,43.07
2018-01-20T17:38:39.155Z,51.20
2018-01-20T17:41:06.714Z,46.40
2018-01-20T17:43:34.606Z,57.27
2018-01-20T17:46:02.149Z,83.30
2018-01-20T17:48:29.683Z,73.97
2018-01-20T17:50:57.688Z,70.70
2018-01-20T17:53:25.271Z,62.50
2018-01-20T17:55:52.857Z,68.20
2018-01-20T17:58:20.453Z,61.23
2018-01-20T18:00:47.996Z,64.23
2018-01-20T18:03:15.532Z,57.90
2018-01-20T18:05:43.080Z,57.50
2018-01-20T18:08:10.907Z,65.80
2018-01-20T18:10:38.596Z,64.37
2018-01-20T18:13:06.151Z,68.60
2018-01-20T18:15:33.745Z,100.83
2018-01-20T18:18:01.302Z,81.23
2018-01-20T18:20:28.893Z,81.97
2018-01-20T18:22:56.453Z,111.43
2018-01-20T18:25:24.070Z,80.10
2018-01-20T18:27:51.672Z,80.80
2018-01-20T18:30:19.224Z,75.63
2018-01-20T18:32:46.863Z,67.07
2018-01-20T18:35:14.413Z,74.67
2018-01-20T18:37:42.054Z,89.73
2018-01-20T18:40:09.609Z,75.60
2018-01-20T18:42:37.214Z,79.73
2018-01-20T18:45:04.795Z,76.30
2018-01-20T18:47:32.351Z,86.50
2018-01-20T18:49:59.919Z,83.80
2018-01-20T18:52:27.810Z,86.17
2018-01-20T18:54:55.471Z,79.97
2018-01-20T18:57:22.997Z,83.37
2018-01-20T18:59:50.573Z,74.30
2018-01-20T19:02:18.134Z,71.93
2018-01-20T19:04:45.693Z,75.93
2018-01-20T19:07:13.306Z,70.47
2018-01-20T19:09:40.865Z,79.67
2018-01-20T19:12:08.392Z,84.73
2018-01-20T19:14:35.935Z,82.63
2018-01-20T19:17:03.528Z,80.37
2018-01-20T19:19:31.204Z,78.13
2018-01-20T19:21:58.716Z,82.90
2018-01-20T19:24:26.292Z,80.80
2018-01-20T19:26:53.822Z,144.10
2018-01-20T19:29:21.387Z,92.60
2018-01-20T19:31:48.981Z,101.87
2018-01-20T19:34:16.537Z,136.70
2018-01-20T19:36:44.139Z,152.20
2018-01-20T19:39:11.808Z,95.57
2018-01-20T19:41:39.334Z,86.30
2018-01-20T19:44:06.904Z,87.50
2018-01-20T19:46:34.451Z,83.47
2018-01-20T19:49:01.973Z,78.83
2018-01-20T19:51:29.798Z,77.03
2018-01-20T19:53:57.334Z,91.97
2018-01-20T19:56:24.891Z,73.63
2018-01-20T19:58:52.488Z,73.93
2018-01-20T20:01:20.047Z,80.87
2018-01-20T20:03:47.588Z,80.23
2018-01-20T20:06:15.198Z,80.57
2018-01-20T20:08:42.852Z,80.40
2018-01-20T20:11:10.376Z,82.63
2018-01-20T20:13:37.923Z,85.97
2018-01-20T20:16:05.535Z,79.03
2018-01-20T20:18:33.085Z,88.67
2018-01-20T20:21:00.882Z,88.10
2018-01-20T20:23:28.446Z,96.07
2018-01-20T20:25:55.982Z,96.40
2018-01-20T20:28:23.599Z,106.13
2018-01-20T20:30:51.275Z,89.03
2018-01-20T20:33:18.863Z,89.10
2018-01-20T20:35:46.462Z,96.97
2018-01-20T20:38:14.009Z,83.50
2018-01-20T20:40:41.617Z,92.50
2018-01-20T20:43:09.229Z,98.20
2018-01-20T20:45:36.835Z,103.10
2018-01-20T20:48:04.353Z,100.17
2018-01-20T20:50:31.891Z,100.50
2018-01-20T20:52:59.460Z,113.30
2018-01-20T20:55:27.054Z,105.80
2018-01-20T20:57:54.659Z,104.77
2018-01-20T21:00:22.274Z,124.87
2018-01-20T21:02:49.887Z,129.13
2018-01-20T21:05:17.436Z,139.37
2018-01-20T21:07:45.013Z,120.90
2018-01-20T21:10:12.597Z,121.00
2018-01-20T21:12:40.223Z,127.03
2018-01-20T21:15:07.893Z,114.63
2018-01-20T21:17:35.462Z,121.60
2018-01-20T21:20:03.027Z,113.73
2018-01-20T21:22:30.628Z,116.80
2018-01-20T21:24:58.218Z,103.60
2018-01-20T21:27:25.742Z,117.07
2018-01-20T21:29:53.338Z,117.03
2018-01-20T21:32:21.115Z,123.23
2018-01-20T21:34:48.806Z,118.37
2018-01-20T21:37:16.344Z,121.10
2018-01-20T21:39:43.916Z,111.20
2018-01-20T21:42:11.471Z,132.33
2018-01-20T21:44:39.050Z,118.27
2018-01-20T21:47:06.637Z,105.23
2018-01-20T21:49:34.229Z,113.50
2018-01-20T21:52:01.834Z,112.10
2018-01-20T21:54:29.450Z,111.03
2018-01-20T21:56:56.980Z,98.70
2018-01-20T21:59:24.542Z,127.17
2018-01-20T22:01:52.121Z,122.57
2018-01-20T22:04:19.661Z,107.20
2018-01-20T22:06:47.593Z,109.63
2018-01-20T22:09:15.192Z,105.63
2018-01-20T22:11:42.733Z,98.60
2018-01-20T22:14:10.286Z,100.27
2018-01-20T22:16:37.849Z,129.00
2018-01-20T22:19:05.442Z,133.37
2018-01-20T22:21:33.005Z,123.17
2018-01-20T22:24:00.632Z,142.23
2018-01-20T22:26:28.171Z,147.87
2018-01-20T22:28:56.067Z,136.90
2018-01-20T22:31:23.642Z,179.30
2018-01-20T22:33:51.210Z,169.67
2018-01-20T22:36:19.148Z,167.10
2018-01-20T22:38:46.708Z,149.33
2018-01-20T22:41:14.243Z,139.57
2018-01-20T22:43:42.682Z,138.63
2018-01-20T22:46:10.211Z,164.30
2018-01-20T22:48:37.770Z,149.10
2018-01-20T22:51:05.316Z,142.07
2018-01-20T22:53:32.945Z,153.37
2018-01-20T22:56:00.502Z,145.27
2018-01-20T22:58:28.376Z,145.87
2018-01-20T23:00:56.000Z,151.00
2018-01-20T23:03:23.567Z,139.83
2018-01-20T23:05:51.092Z,152.30
2018-01-20T23:08:18.712Z,158.20
2018-01-20T23:10:46.309Z,134.27
2018-01-20T23:13:13.890Z,124.53
2018-01-20T23:15:41.411Z,126.57
2018-01-20T23:18:08.964Z,129.07
2018-01-20T23:20:36.588Z,127.50
2018-01-20T23:23:04.118Z,125.97
2018-01-20T23:25:32.057Z,144.47
2018-01-20T23:27:59.613Z,129.93
2018-01-20T23:30:27.186Z,135.43
2018-01-20T23:32:54.768Z,144.70
2018-01-20T23:35:22.300Z,141.30
2018-01-20T23:37:49.852Z,140.93
2018-01-20T23:40:17.400Z,152.60
2018-01-20T23:42:44.982Z,140.83
2018-01-20T23:45:12.541Z,131.53
2018-01-20T23:47:40.403Z,139.23
2018-01-20T23:50:07.956Z,122.33
2018-01-20T23:52:35.737Z,141.17
2018-01-20T23:55:03.315Z,143.17
2018-01-20T23:57:30.940Z,137.63
2018-01-20T23:59:58.525Z,150.87
